Time;durP1;ratioP1;P1;durP2;ratioP2;P2;SDS_P1;SDS_P2;PMS_P1;PMS_P2;Temp;Humidity;BMP_temperature;BMP_pressure;BME280_temperature;BME280_humidity;BME280_pressure;Samples;Min_cycle;Max_cycle;Signal;HPM_P1;HPM_P2
2021/06/09 18:19:46;;;;;;;36.83;4.85;;;;;;;19.63;100.00;100254.18;1782552;75;20958;-92
2021/06/09 18:22:10;;;;;;;23.30;4.12;;;;;;;19.60;100.00;100255.86;1733777;80;21010;-90
2021/06/09 18:24:39;;;;;;;13.72;3.70;;;;;;;19.58;100.00;100257.37;1755849;80;21050;-94
2021/06/09 18:27:20;;;;;;;;;;;;;;;;;;;;;
2021/06/09 18:29:45;;;;;;;5.08;2.75;;;;;;;19.50;100.00;100261.42;1680790;84;21484;-90
2021/06/09 18:32:23;;;;;;;;;;;;;;;;;;;;;
2021/06/09 18:34:43;;;;;;;9.15;3.20;;;;;;;19.39;100.00;100258.74;1783938;79;21068;-91
2021/06/09 18:37:12;;;;;;;6.00;3.20;;;;;;;19.36;100.00;100259.09;1761660;81;21152;-88
2021/06/09 18:39:42;;;;;;;7.90;3.30;;;;;;;19.32;100.00;100253.36;1741563;79;20959;-88
2021/06/09 18:42:10;;;;;;;4.40;3.37;;;;;;;19.28;100.00;100248.62;1744884;79;21045;-89
2021/06/09 18:44:50;;;;;;;;;;;;;;;;;;;;;
2021/06/09 18:47:14;;;;;;;6.00;3.98;;;;;;;19.22;100.00;100247.04;1747429;79;20998;-89
2021/06/09 18:49:42;;;;;;;5.40;4.35;;;;;;;19.20;100.00;100246.91;1730575;79;21088;-90
2021/06/09 18:52:15;;;;;;;7.20;3.98;;;;;;;19.18;100.00;100251.06;1728022;80;21004;-87
2021/06/09 18:54:43;;;;;;;4.50;3.75;;;;;;;19.13;100.00;100248.13;1745909;80;21065;-88
2021/06/09 18:57:11;;;;;;;6.92;4.15;;;;;;;19.10;100.00;100243.22;1744650;80;21128;-88
2021/06/09 18:59:43;;;;;;;4.90;4.33;;;;;;;19.07;100.00;100243.58;1786182;79;21694;-89
2021/06/09 19:02:11;;;;;;;5.12;4.28;;;;;;;19.05;100.00;100241.61;1753642;79;21546;-88
2021/06/09 19:04:40;;;;;;;7.50;4.70;;;;;;;19.04;100.00;100239.96;1734632;80;21052;-88
2021/06/09 19:07:07;;;;;;;15.63;4.90;;;;;;;19.02;100.00;100241.47;1732962;80;21049;-90
2021/06/09 19:09:42;;;;;;;8.03;4.60;;;;;;;19.00;100.00;100234.73;1756557;80;21022;-87
2021/06/09 19:12:13;;;;;;;10.40;4.37;;;;;;;18.94;100.00;100236.27;1743499;80;21038;-87
2021/06/09 19:14:59;;;;;;;;;;;;;;;;;;;;;
2021/06/09 19:17:22;;;;;;;4.47;4.03;;;;;;;18.81;100.00;100230.26;1748086;79;21018;-88
2021/06/09 19:19:56;;;;;;;5.22;4.72;;;;;;;18.76;100.00;100224.71;1725048;82;21501;-90
2021/06/09 19:25:09;;;;;;;5.87;4.00;;;;;;;18.59;100.00;100226.65;1587369;83;21578;-88
2021/06/09 19:27:41;;;;;;;5.60;3.83;;;;;;;18.51;100.00;100227.55;1698272;83;21132;-88
2021/06/09 19:30:15;;;;;;;5.37;3.70;;;;;;;18.43;100.00;100223.15;1727176;81;21344;-88
2021/06/09 19:32:50;;;;;;;5.08;3.83;;;;;;;18.37;100.00;100223.05;1757476;79;21044;-88
2021/06/09 19:35:20;;;;;;;5.97;3.80;;;;;;;18.34;100.00;100215.48;1788725;79;21028;-87
2021/06/09 19:37:57;;;;;;;9.85;4.25;;;;;;;18.30;100.00;100215.02;1781659;79;20943;-89
2021/06/09 19:40:27;;;;;;;6.50;3.60;;;;;;;18.28;100.00;100213.05;1730452;81;21463;-89
2021/06/09 19:42:55;;;;;;;8.90;4.08;;;;;;;18.25;100.00;100212.91;1702996;82;21136;-89
2021/06/09 19:45:22;;;;;;;4.87;4.08;;;;;;;18.22;100.00;100222.50;1772455;79;21056;-89
2021/06/09 19:47:52;;;;;;;8.98;3.40;;;;;;;18.18;100.00;100228.30;1767281;79;21449;-87
2021/06/09 19:50:24;;;;;;;4.83;3.52;;;;;;;18.15;100.00;100229.95;1783743;80;21045;-89
2021/06/09 19:52:54;;;;;;;5.80;3.93;;;;;;;18.12;100.00;100228.48;1724950;79;21788;-89
2021/06/09 19:55:23;;;;;;;6.12;4.50;;;;;;;18.11;100.00;100235.55;1735983;80;21113;-89
2021/06/09 19:58:07;;;;;;;;;;;;;;;;;;;;;
2021/06/09 20:00:24;;;;;;;9.50;4.17;;;;;;;18.08;100.00;100228.02;1714821;81;21025;-89
2021/06/09 20:02:57;;;;;;;9.48;3.75;;;;;;;18.07;100.00;100225.53;1696291;82;21064;-88
2021/06/09 20:05:26;;;;;;;5.10;4.07;;;;;;;18.05;100.00;100231.50;1766519;79;21421;-88
2021/06/09 20:07:53;;;;;;;6.78;3.85;;;;;;;18.03;100.00;100230.84;1733379;80;21044;-89
2021/06/09 20:10:25;;;;;;;4.05;3.75;;;;;;;18.00;100.00;100230.70;1775711;79;21082;-88
2021/06/09 20:12:54;;;;;;;7.10;3.87;;;;;;;17.97;100.00;100222.66;1739445;80;21037;-89
2021/06/09 20:15:22;;;;;;;6.37;4.15;;;;;;;17.93;100.00;100227.90;1761137;79;21591;-88
2021/06/09 20:18:14;;;;;;;;;;;;;;;;;;;;;
2021/06/09 20:20:27;;;;;;;5.92;3.37;;;;;;;17.92;100.00;100224.94;1697874;83;21145;-90
2021/06/09 20:22:57;;;;;;;5.25;3.62;;;;;;;17.92;100.00;100220.98;1711499;82;21078;-89
2021/06/09 20:27:29;;;;;;;11.60;4.40;;;;;;;17.91;100.00;100229.88;1706223;82;21125;-89
2021/06/09 20:27:56;;;;;;;10.05;3.98;;;;;;;17.90;100.00;100230.89;1713486;81;21110;-90
2021/06/09 20:30:34;;;;;;;;;;;;;;;;;;;;;
2021/06/09 20:32:55;;;;;;;7.95;4.20;;;;;;;17.85;100.00;100231.89;1738941;80;21566;-89
2021/06/09 20:35:32;;;;;;;;;;;;;;;;;;;;;
2021/06/09 20:37:51;;;;;;;9.23;4.83;;;;;;;17.74;100.00;100228.34;1747866;80;21089;-91
2021/06/09 20:40:19;;;;;;;7.08;4.22;;;;;;;17.71;100.00;100224.22;1658610;82;20983;-89
2021/06/09 20:42:46;;;;;;;6.90;4.33;;;;;;;17.70;100.00;100224.39;1683578;81;21892;-89
2021/06/09 20:45:15;;;;;;;9.15;4.45;;;;;;;17.66;100.00;100219.97;1685249;81;21213;-89
2021/06/09 20:47:44;;;;;;;6.17;4.45;;;;;;;17.62;100.00;100218.69;1691754;81;21041;-88
2021/06/09 20:50:14;;;;;;;11.93;4.78;;;;;;;17.51;100.00;100215.91;1672632;82;21376;-89
2021/06/09 20:52:41;;;;;;;6.20;4.22;;;;;;;17.42;100.00;100214.33;1698906;81;21078;-88
2021/06/09 20:55:10;;;;;;;7.25;4.53;;;;;;;17.36;100.00;100213.19;1682901;81;21291;-89
2021/06/09 20:57:37;;;;;;;5.30;4.28;;;;;;;17.32;100.00;100211.86;1687736;82;21019;-90
2021/06/09 21:00:08;;;;;;;5.72;4.12;;;;;;;17.29;100.00;100214.34;1686855;83;21074;-89
2021/06/09 21:02:35;;;;;;;6.70;4.53;;;;;;;17.29;100.00;100222.24;1728341;80;21101;-89
2021/06/09 21:05:04;;;;;;;8.95;4.28;;;;;;;17.25;100.00;100219.64;1734156;81;21715;-89
2021/06/09 21:07:32;;;;;;;11.30;4.45;;;;;;;17.18;100.00;100217.36;1766238;80;21592;-89
2021/06/09 21:09:59;;;;;;;10.82;5.03;;;;;;;17.13;100.00;100210.44;1737005;80;21111;-89
2021/06/09 21:12:26;;;;;;;12.50;5.62;;;;;;;17.10;100.00;100212.11;1658141;84;21138;-89
2021/06/09 21:14:54;;;;;;;10.75;5.20;;;;;;;17.08;100.00;100212.77;1728604;81;21073;-88
2021/06/09 21:17:21;;;;;;;13.20;4.95;;;;;;;17.06;100.00;100212.95;1747636;81;21081;-89
2021/06/09 21:19:48;;;;;;;9.10;5.42;;;;;;;17.03;100.00;100203.55;1739225;81;21296;-87
2021/06/09 21:22:17;;;;;;;7.60;5.60;;;;;;;17.00;100.00;100207.86;1735516;81;21050;-89
2021/06/09 21:24:45;;;;;;;8.55;5.67;;;;;;;16.97;100.00;100211.31;1764434;80;21158;-88
2021/06/09 21:27:12;;;;;;;9.65;6.70;;;;;;;16.93;100.00;100208.20;1736587;80;21061;-89
2021/06/09 21:29:39;;;;;;;11.65;6.87;;;;;;;16.90;100.00;100204.55;1713477;81;21010;-88
2021/06/09 21:32:06;;;;;;;6.78;6.08;;;;;;;16.90;100.00;100207.17;1733329;80;21106;-88
2021/06/09 21:34:34;;;;;;;10.78;6.47;;;;;;;16.88;100.00;100194.68;1758088;80;21599;-87
2021/06/09 21:37:01;;;;;;;12.07;7.72;;;;;;;16.86;100.00;100200.11;1729051;80;21073;-89
2021/06/09 21:39:28;;;;;;;9.33;7.85;;;;;;;16.84;100.00;100194.70;1735987;80;21033;-88
2021/06/09 21:41:55;;;;;;;9.83;8.35;;;;;;;16.81;100.00;100195.02;1748997;80;21041;-89
2021/06/09 21:44:23;;;;;;;9.98;8.98;;;;;;;16.78;100.00;100197.50;1739817;80;21056;-88
2021/06/09 21:46:50;;;;;;;10.25;9.15;;;;;;;16.71;100.00;100194.70;1742934;80;21010;-88
2021/06/09 21:49:17;;;;;;;9.70;8.58;;;;;;;16.58;100.00;100190.95;1734633;80;21079;-87
2021/06/09 21:51:52;;;;;;;8.98;7.97;;;;;;;16.45;100.00;100188.81;1742301;80;21062;-87
2021/06/09 21:54:20;;;;;;;9.85;7.72;;;;;;;16.34;100.00;100188.15;1733935;80;21090;-87
2021/06/09 21:56:48;;;;;;;12.93;9.18;;;;;;;16.29;100.00;100185.20;1734442;80;21105;-86
2021/06/09 21:59:16;;;;;;;10.30;8.88;;;;;;;16.29;100.00;100182.57;1732185;80;21076;-87
2021/06/09 22:01:43;;;;;;;15.32;9.88;;;;;;;16.35;100.00;100181.91;1726070;80;21037;-87
2021/06/09 22:04:10;;;;;;;11.63;9.48;;;;;;;16.37;100.00;100183.89;1738818;80;21251;-86
2021/06/09 22:06:37;;;;;;;11.65;9.78;;;;;;;16.40;100.00;100180.92;1721386;80;21175;-87
2021/06/09 22:09:06;;;;;;;13.95;10.72;;;;;;;16.43;100.00;100184.20;1730825;80;21871;-88
2021/06/09 22:11:33;;;;;;;12.15;9.95;;;;;;;16.45;100.00;100180.94;1731108;80;21075;-87
2021/06/09 22:14:00;;;;;;;12.20;9.38;;;;;;;16.45;100.00;100187.50;1739188;80;21040;-88
2021/06/09 22:16:32;;;;;;;13.18;9.58;;;;;;;16.41;100.00;100183.07;1741834;80;21136;-87
2021/06/09 22:18:57;;;;;;;11.18;8.35;;;;;;;16.36;100.00;100182.72;1723246;80;21215;-88
2021/06/09 22:21:24;;;;;;;12.10;9.03;;;;;;;16.33;100.00;100181.25;1738222;80;21100;-87
2021/06/09 22:23:51;;;;;;;15.15;9.68;;;;;;;16.31;100.00;100176.64;1740150;80;21037;-88
2021/06/09 22:26:19;;;;;;;14.95;11.53;;;;;;;16.27;100.00;100174.02;1753378;80;21180;-89
2021/06/09 22:28:47;;;;;;;14.90;11.90;;;;;;;16.20;100.00;100180.92;1729974;80;21074;-88
2021/06/09 22:31:14;;;;;;;19.90;13.83;;;;;;;16.09;100.00;100182.87;1734962;80;21105;-87
2021/06/09 22:33:41;;;;;;;17.42;13.20;;;;;;;15.93;100.00;100183.67;1729887;80;21036;-89
2021/06/09 22:36:08;;;;;;;19.60;13.95;;;;;;;15.80;100.00;100185.08;1772697;80;21001;-87
2021/06/09 22:38:36;;;;;;;20.68;14.43;;;;;;;15.71;100.00;100189.00;1732612;80;21030;-88
2021/06/09 22:41:05;;;;;;;19.35;13.50;;;;;;;15.62;100.00;100182.07;1745424;80;20986;-87
2021/06/09 22:43:33;;;;;;;22.45;14.33;;;;;;;15.55;100.00;100186.31;1714662;82;21053;-88
2021/06/09 22:46:00;;;;;;;23.77;15.18;;;;;;;15.48;100.00;100186.11;1750527;81;21133;-88
2021/06/09 22:48:27;;;;;;;24.37;14.90;;;;;;;15.42;100.00;100175.75;1741437;80;20993;-87
2021/06/09 22:50:57;;;;;;;18.15;12.43;;;;;;;15.39;100.00;100172.63;1706643;83;21111;-89
2021/06/09 22:53:24;;;;;;;18.42;14.65;;;;;;;15.34;100.00;100174.44;1741100;81;21035;-87
2021/06/09 22:55:53;;;;;;;20.05;14.43;;;;;;;15.39;100.00;100165.59;1747689;80;20976;-88
2021/06/09 22:58:21;;;;;;;17.23;13.80;;;;;;;15.46;100.00;100165.29;1744019;81;21781;-90
2021/06/09 23:00:48;;;;;;;21.35;14.15;;;;;;;15.50;100.00;100163.67;1714435;82;21137;-88
2021/06/09 23:03:15;;;;;;;20.15;13.45;;;;;;;15.49;100.00;100156.78;1737281;81;21019;-89
2021/06/09 23:05:44;;;;;;;18.37;13.32;;;;;;;15.43;100.00;100160.34;1714505;82;21053;-89
2021/06/09 23:08:10;;;;;;;23.52;14.55;;;;;;;15.34;100.00;100162.63;1734242;81;21085;-88
2021/06/09 23:10:38;;;;;;;21.00;13.18;;;;;;;15.28;100.00;100156.20;1705236;82;21774;-88
2021/06/09 23:13:05;;;;;;;21.57;13.98;;;;;;;15.29;100.00;100160.95;1760442;80;21606;-88
2021/06/09 23:15:34;;;;;;;20.55;13.18;;;;;;;15.26;100.00;100154.22;1734274;81;21184;-89
2021/06/09 23:18:02;;;;;;;27.37;13.60;;;;;;;15.25;100.00;100158.33;1706568;82;21092;-88
2021/06/09 23:20:29;;;;;;;22.02;12.58;;;;;;;15.22;100.00;100167.80;1709374;82;21035;-88
2021/06/09 23:22:56;;;;;;;17.77;11.68;;;;;;;15.20;100.00;100161.89;1711042;82;21129;-88
2021/06/09 23:25:23;;;;;;;21.35;12.13;;;;;;;15.15;100.00;100158.42;1732834;81;21020;-89
2021/06/09 23:27:50;;;;;;;19.52;11.97;;;;;;;15.14;100.00;100157.61;1703621;82;21097;-89
2021/06/09 23:30:20;;;;;;;16.40;12.30;;;;;;;15.17;100.00;100162.22;1758474;80;21010;-89
2021/06/09 23:32:48;;;;;;;19.00;12.28;;;;;;;15.17;100.00;100164.84;1766003;80;21575;-88
2021/06/09 23:35:15;;;;;;;17.62;14.10;;;;;;;15.14;100.00;100168.10;1731128;82;21161;-87
2021/06/09 23:37:43;;;;;;;18.75;14.50;;;;;;;15.12;100.00;100168.73;1705400;82;21015;-88
2021/06/09 23:40:12;;;;;;;22.65;13.70;;;;;;;15.07;100.00;100169.70;1732845;82;21047;-88
2021/06/09 23:42:39;;;;;;;21.12;12.43;;;;;;;14.95;100.00;100170.45;1708406;82;21063;-88
2021/06/09 23:45:08;;;;;;;17.02;12.85;;;;;;;14.89;100.00;100171.55;1703665;82;21055;-87
2021/06/09 23:47:38;;;;;;;17.23;12.73;;;;;;;14.87;100.00;100169.09;1703326;81;21141;-89
2021/06/09 23:50:17;;;;;;;22.20;12.03;;;;;;;14.88;100.00;100176.45;1763987;80;21529;-87
2021/06/09 23:52:36;;;;;;;;;;;;;;;14.90;100.00;100171.89;1718375;81;20979;-89
2021/06/09 23:55:07;;;;;;;24.12;12.13;;;;;;;14.98;100.00;100174.06;1778325;78;20133;-88
2021/06/09 23:57:35;;;;;;;21.68;12.35;;;;;;;15.03;100.00;100168.86;1703381;81;21108;-88
